sensor_id;sensor_type;location;lat;lon;timestamp;P1;durP1;ratioP1;P2;durP2;ratioP2
13263;SDS011;6700;51.988;7.646;2023-06-26T00:00:04;9.35;;;8.48;;
13263;SDS011;6700;51.988;7.646;2023-06-26T00:02:32;8.52;;;7.72;;
13263;SDS011;6700;51.988;7.646;2023-06-26T00:04:59;10.02;;;7.80;;
13263;SDS011;6700;51.988;7.646;2023-06-26T00:07:29;8.95;;;8.05;;
13263;SDS011;6700;51.988;7.646;2023-06-26T00:09:57;8.82;;;7.93;;
13263;SDS011;6700;51.988;7.646;2023-06-26T00:12:25;9.05;;;7.70;;
13263;SDS011;6700;51.988;7.646;2023-06-26T00:14:52;8.82;;;7.93;;
13263;SDS011;6700;51.988;7.646;2023-06-26T00:17:19;8.70;;;7.90;;
13263;SDS011;6700;51.988;7.646;2023-06-26T00:19:46;8.43;;;7.72;;
13263;SDS011;6700;51.988;7.646;2023-06-26T00:22:13;9.02;;;8.23;;
13263;SDS011;6700;51.988;7.646;2023-06-26T00:24:41;8.80;;;8.10;;
13263;SDS011;6700;51.988;7.646;2023-06-26T00:27:08;8.75;;;7.85;;
13263;SDS011;6700;51.988;7.646;2023-06-26T00:29:35;9.43;;;8.38;;
13263;SDS011;6700;51.988;7.646;2023-06-26T00:32:02;8.73;;;7.75;;
13263;SDS011;6700;51.988;7.646;2023-06-26T00:34:29;9.15;;;8.35;;
13263;SDS011;6700;51.988;7.646;2023-06-26T00:36:56;9.10;;;8.30;;
13263;SDS011;6700;51.988;7.646;2023-06-26T00:39:23;8.55;;;7.85;;
13263;SDS011;6700;51.988;7.646;2023-06-26T00:41:52;9.38;;;8.48;;
13263;SDS011;6700;51.988;7.646;2023-06-26T00:44:22;9.43;;;8.57;;
13263;SDS011;6700;51.988;7.646;2023-06-26T00:46:49;9.30;;;8.50;;
13263;SDS011;6700;51.988;7.646;2023-06-26T00:49:17;10.10;;;8.55;;
13263;SDS011;6700;51.988;7.646;2023-06-26T00:51:44;9.27;;;8.48;;
13263;SDS011;6700;51.988;7.646;2023-06-26T00:54:11;9.65;;;8.82;;
13263;SDS011;6700;51.988;7.646;2023-06-26T00:56:40;9.55;;;8.73;;
13263;SDS011;6700;51.988;7.646;2023-06-26T00:59:08;9.82;;;8.93;;
13263;SDS011;6700;51.988;7.646;2023-06-26T01:01:35;9.65;;;8.85;;
13263;SDS011;6700;51.988;7.646;2023-06-26T01:04:02;10.23;;;9.10;;
13263;SDS011;6700;51.988;7.646;2023-06-26T01:06:30;10.48;;;9.48;;
13263;SDS011;6700;51.988;7.646;2023-06-26T01:08:58;9.88;;;8.88;;
13263;SDS011;6700;51.988;7.646;2023-06-26T01:11:26;8.80;;;8.00;;
13263;SDS011;6700;51.988;7.646;2023-06-26T01:13:53;11.23;;;9.38;;
13263;SDS011;6700;51.988;7.646;2023-06-26T01:16:22;9.52;;;8.63;;
13263;SDS011;6700;51.988;7.646;2023-06-26T01:18:50;9.32;;;8.43;;
13263;SDS011;6700;51.988;7.646;2023-06-26T01:21:17;9.27;;;8.48;;
13263;SDS011;6700;51.988;7.646;2023-06-26T01:26:31;9.50;;;8.77;;
13263;SDS011;6700;51.988;7.646;2023-06-26T01:29:02;10.30;;;9.40;;
13263;SDS011;6700;51.988;7.646;2023-06-26T01:31:29;9.38;;;8.55;;
13263;SDS011;6700;51.988;7.646;2023-06-26T01:33:58;9.48;;;8.57;;
13263;SDS011;6700;51.988;7.646;2023-06-26T01:36:26;9.55;;;8.70;;
13263;SDS011;6700;51.988;7.646;2023-06-26T01:38:53;9.60;;;8.80;;
13263;SDS011;6700;51.988;7.646;2023-06-26T01:41:21;10.05;;;9.15;;
13263;SDS011;6700;51.988;7.646;2023-06-26T01:46:40;10.50;;;9.50;;
13263;SDS011;6700;51.988;7.646;2023-06-26T01:49:56;10.88;;;9.88;;
13263;SDS011;6700;51.988;7.646;2023-06-26T01:54:24;11.43;;;10.13;;
13263;SDS011;6700;51.988;7.646;2023-06-26T01:56:52;9.63;;;8.73;;
13263;SDS011;6700;51.988;7.646;2023-06-26T01:59:21;10.52;;;9.55;;
13263;SDS011;6700;51.988;7.646;2023-06-26T02:01:48;10.77;;;9.80;;
13263;SDS011;6700;51.988;7.646;2023-06-26T02:04:16;9.63;;;8.82;;
13263;SDS011;6700;51.988;7.646;2023-06-26T02:06:43;10.00;;;9.10;;
13263;SDS011;6700;51.988;7.646;2023-06-26T02:09:10;11.02;;;9.40;;
13263;SDS011;6700;51.988;7.646;2023-06-26T02:11:37;10.05;;;9.07;;
13263;SDS011;6700;51.988;7.646;2023-06-26T02:14:04;11.07;;;9.55;;
13263;SDS011;6700;51.988;7.646;2023-06-26T02:16:31;9.88;;;8.88;;
13263;SDS011;6700;51.988;7.646;2023-06-26T02:18:59;9.43;;;8.52;;
13263;SDS011;6700;51.988;7.646;2023-06-26T02:21:26;10.10;;;9.20;;
13263;SDS011;6700;51.988;7.646;2023-06-26T02:23:53;10.57;;;9.68;;
13263;SDS011;6700;51.988;7.646;2023-06-26T02:26:20;9.25;;;8.35;;
13263;SDS011;6700;51.988;7.646;2023-06-26T02:28:47;10.57;;;8.95;;
13263;SDS011;6700;51.988;7.646;2023-06-26T02:34:40;9.90;;;8.40;;
13263;SDS011;6700;51.988;7.646;2023-06-26T02:37:07;9.82;;;8.95;;
13263;SDS011;6700;51.988;7.646;2023-06-26T02:39:34;10.40;;;9.20;;
13263;SDS011;6700;51.988;7.646;2023-06-26T02:42:02;10.52;;;9.63;;
13263;SDS011;6700;51.988;7.646;2023-06-26T02:44:29;9.80;;;8.90;;
13263;SDS011;6700;51.988;7.646;2023-06-26T02:46:56;9.55;;;8.75;;
13263;SDS011;6700;51.988;7.646;2023-06-26T02:49:23;10.57;;;9.57;;
13263;SDS011;6700;51.988;7.646;2023-06-26T02:51:50;9.98;;;8.98;;
13263;SDS011;6700;51.988;7.646;2023-06-26T02:54:18;11.25;;;9.30;;
13263;SDS011;6700;51.988;7.646;2023-06-26T02:56:45;10.10;;;9.20;;
13263;SDS011;6700;51.988;7.646;2023-06-26T02:59:13;10.43;;;9.45;;
13263;SDS011;6700;51.988;7.646;2023-06-26T03:01:41;9.53;;;8.63;;
13263;SDS011;6700;51.988;7.646;2023-06-26T03:04:08;9.73;;;8.93;;
13263;SDS011;6700;51.988;7.646;2023-06-26T03:06:36;9.35;;;8.55;;
13263;SDS011;6700;51.988;7.646;2023-06-26T03:09:03;10.23;;;9.32;;
13263;SDS011;6700;51.988;7.646;2023-06-26T03:11:30;10.35;;;9.40;;
13263;SDS011;6700;51.988;7.646;2023-06-26T03:13:57;10.75;;;8.50;;
13263;SDS011;6700;51.988;7.646;2023-06-26T03:16:24;9.95;;;9.05;;
13263;SDS011;6700;51.988;7.646;2023-06-26T03:18:52;10.52;;;9.52;;
13263;SDS011;6700;51.988;7.646;2023-06-26T03:21:19;10.65;;;8.73;;
13263;SDS011;6700;51.988;7.646;2023-06-26T03:23:46;10.70;;;9.65;;
13263;SDS011;6700;51.988;7.646;2023-06-26T03:26:13;9.70;;;8.77;;
13263;SDS011;6700;51.988;7.646;2023-06-26T03:28:40;10.10;;;9.02;;
13263;SDS011;6700;51.988;7.646;2023-06-26T03:31:11;9.07;;;8.27;;
13263;SDS011;6700;51.988;7.646;2023-06-26T03:33:38;9.30;;;8.50;;
13263;SDS011;6700;51.988;7.646;2023-06-26T03:36:05;9.55;;;8.65;;
13263;SDS011;6700;51.988;7.646;2023-06-26T03:38:32;12.27;;;9.27;;
13263;SDS011;6700;51.988;7.646;2023-06-26T03:40:59;9.87;;;8.97;;
13263;SDS011;6700;51.988;7.646;2023-06-26T03:43:26;11.07;;;10.07;;
13263;SDS011;6700;51.988;7.646;2023-06-26T03:45:54;9.52;;;8.40;;
13263;SDS011;6700;51.988;7.646;2023-06-26T03:48:21;10.18;;;8.02;;
13263;SDS011;6700;51.988;7.646;2023-06-26T03:50:48;10.83;;;8.30;;
13263;SDS011;6700;51.988;7.646;2023-06-26T03:53:15;8.98;;;8.18;;
13263;SDS011;6700;51.988;7.646;2023-06-26T03:55:42;9.40;;;8.55;;
13263;SDS011;6700;51.988;7.646;2023-06-26T03:58:10;9.57;;;8.45;;
13263;SDS011;6700;51.988;7.646;2023-06-26T04:00:37;8.77;;;7.90;;
13263;SDS011;6700;51.988;7.646;2023-06-26T04:03:04;8.50;;;7.70;;
13263;SDS011;6700;51.988;7.646;2023-06-26T04:05:31;8.52;;;7.68;;
13263;SDS011;6700;51.988;7.646;2023-06-26T04:07:58;8.02;;;7.15;;
13263;SDS011;6700;51.988;7.646;2023-06-26T04:10:25;11.30;;;7.88;;
13263;SDS011;6700;51.988;7.646;2023-06-26T04:12:52;10.25;;;7.68;;
13263;SDS011;6700;51.988;7.646;2023-06-26T04:15:19;8.25;;;7.40;;
13263;SDS011;6700;51.988;7.646;2023-06-26T04:17:47;9.20;;;7.63;;
13263;SDS011;6700;51.988;7.646;2023-06-26T04:20:14;8.95;;;7.88;;
13263;SDS011;6700;51.988;7.646;2023-06-26T04:22:41;8.45;;;7.55;;
13263;SDS011;6700;51.988;7.646;2023-06-26T04:25:08;8.95;;;8.05;;
13263;SDS011;6700;51.988;7.646;2023-06-26T04:27:35;8.27;;;7.22;;
13263;SDS011;6700;51.988;7.646;2023-06-26T04:30:06;8.93;;;7.45;;
13263;SDS011;6700;51.988;7.646;2023-06-26T04:32:34;8.40;;;7.53;;
13263;SDS011;6700;51.988;7.646;2023-06-26T04:35:01;7.43;;;6.68;;
13263;SDS011;6700;51.988;7.646;2023-06-26T04:37:29;8.15;;;6.90;;
13263;SDS011;6700;51.988;7.646;2023-06-26T04:39:56;7.63;;;6.93;;
13263;SDS011;6700;51.988;7.646;2023-06-26T04:42:23;11.27;;;7.60;;
13263;SDS011;6700;51.988;7.646;2023-06-26T04:44:50;8.30;;;7.05;;
13263;SDS011;6700;51.988;7.646;2023-06-26T04:47:17;8.82;;;7.78;;
13263;SDS011;6700;51.988;7.646;2023-06-26T04:49:45;8.65;;;7.75;;
13263;SDS011;6700;51.988;7.646;2023-06-26T04:52:13;11.55;;;8.00;;
13263;SDS011;6700;51.988;7.646;2023-06-26T04:54:40;9.02;;;8.13;;
13263;SDS011;6700;51.988;7.646;2023-06-26T04:57:07;8.57;;;7.72;;
13263;SDS011;6700;51.988;7.646;2023-06-26T04:59:38;10.10;;;8.45;;
13263;SDS011;6700;51.988;7.646;2023-06-26T05:02:05;9.95;;;9.00;;
13263;SDS011;6700;51.988;7.646;2023-06-26T05:04:32;11.75;;;8.80;;
13263;SDS011;6700;51.988;7.646;2023-06-26T05:06:59;10.55;;;9.40;;
13263;SDS011;6700;51.988;7.646;2023-06-26T05:09:27;9.80;;;8.90;;
13263;SDS011;6700;51.988;7.646;2023-06-26T05:11:54;10.55;;;9.48;;
13263;SDS011;6700;51.988;7.646;2023-06-26T05:14:21;12.48;;;9.82;;
13263;SDS011;6700;51.988;7.646;2023-06-26T05:16:50;11.15;;;9.63;;
13263;SDS011;6700;51.988;7.646;2023-06-26T05:19:17;11.05;;;9.95;;
13263;SDS011;6700;51.988;7.646;2023-06-26T05:21:45;10.68;;;9.68;;
13263;SDS011;6700;51.988;7.646;2023-06-26T05:24:12;14.88;;;10.90;;
13263;SDS011;6700;51.988;7.646;2023-06-26T05:26:40;10.57;;;9.52;;
13263;SDS011;6700;51.988;7.646;2023-06-26T05:29:07;12.43;;;10.63;;
13263;SDS011;6700;51.988;7.646;2023-06-26T05:31:34;12.38;;;9.80;;
13263;SDS011;6700;51.988;7.646;2023-06-26T05:34:04;11.35;;;10.15;;
13263;SDS011;6700;51.988;7.646;2023-06-26T05:36:31;12.13;;;10.32;;
13263;SDS011;6700;51.988;7.646;2023-06-26T05:39:00;11.52;;;9.82;;
13263;SDS011;6700;51.988;7.646;2023-06-26T05:41:28;10.85;;;9.88;;
13263;SDS011;6700;51.988;7.646;2023-06-26T05:43:55;13.68;;;10.60;;
13263;SDS011;6700;51.988;7.646;2023-06-26T05:46:23;11.88;;;9.77;;
13263;SDS011;6700;51.988;7.646;2023-06-26T05:48:50;11.35;;;9.90;;
13263;SDS011;6700;51.988;7.646;2023-06-26T05:51:17;11.52;;;10.40;;
13263;SDS011;6700;51.988;7.646;2023-06-26T05:53:44;11.45;;;9.75;;
13263;SDS011;6700;51.988;7.646;2023-06-26T05:56:11;12.38;;;10.18;;
13263;SDS011;6700;51.988;7.646;2023-06-26T05:58:39;13.77;;;10.13;;
13263;SDS011;6700;51.988;7.646;2023-06-26T06:01:07;11.82;;;10.52;;
13263;SDS011;6700;51.988;7.646;2023-06-26T06:03:34;11.30;;;10.10;;
13263;SDS011;6700;51.988;7.646;2023-06-26T06:06:02;12.48;;;10.02;;
13263;SDS011;6700;51.988;7.646;2023-06-26T06:08:29;11.00;;;9.90;;
13263;SDS011;6700;51.988;7.646;2023-06-26T06:10:56;11.27;;;9.73;;
13263;SDS011;6700;51.988;7.646;2023-06-26T06:13:23;11.43;;;10.07;;
13263;SDS011;6700;51.988;7.646;2023-06-26T06:15:50;10.68;;;9.13;;
13263;SDS011;6700;51.988;7.646;2023-06-26T06:18:18;11.80;;;9.32;;
13263;SDS011;6700;51.988;7.646;2023-06-26T06:20:45;10.77;;;9.70;;
13263;SDS011;6700;51.988;7.646;2023-06-26T06:23:12;9.82;;;8.77;;
13263;SDS011;6700;51.988;7.646;2023-06-26T06:25:39;14.85;;;9.10;;
13263;SDS011;6700;51.988;7.646;2023-06-26T06:28:06;9.82;;;8.68;;
13263;SDS011;6700;51.988;7.646;2023-06-26T06:30:34;11.73;;;8.38;;
13263;SDS011;6700;51.988;7.646;2023-06-26T06:33:11;14.57;;;8.15;;
13263;SDS011;6700;51.988;7.646;2023-06-26T06:35:38;9.48;;;7.60;;
13263;SDS011;6700;51.988;7.646;2023-06-26T06:38:05;10.18;;;7.63;;
13263;SDS011;6700;51.988;7.646;2023-06-26T06:40:32;10.00;;;6.80;;
13263;SDS011;6700;51.988;7.646;2023-06-26T06:42:59;6.95;;;6.32;;
13263;SDS011;6700;51.988;7.646;2023-06-26T06:45:26;10.32;;;7.22;;
13263;SDS011;6700;51.988;7.646;2023-06-26T06:47:54;9.80;;;6.75;;
13263;SDS011;6700;51.988;7.646;2023-06-26T06:50:21;9.95;;;7.00;;
13263;SDS011;6700;51.988;7.646;2023-06-26T06:52:48;9.13;;;7.35;;
13263;SDS011;6700;51.988;7.646;2023-06-26T06:55:15;7.35;;;6.60;;
13263;SDS011;6700;51.988;7.646;2023-06-26T06:57:42;9.25;;;6.57;;
13263;SDS011;6700;51.988;7.646;2023-06-26T07:00:10;8.05;;;6.38;;
13263;SDS011;6700;51.988;7.646;2023-06-26T07:02:41;8.13;;;6.85;;
13263;SDS011;6700;51.988;7.646;2023-06-26T07:05:09;13.77;;;6.68;;
13263;SDS011;6700;51.988;7.646;2023-06-26T07:07:36;8.13;;;6.55;;
13263;SDS011;6700;51.988;7.646;2023-06-26T07:10:07;7.45;;;6.10;;
13263;SDS011;6700;51.988;7.646;2023-06-26T07:12:35;10.85;;;7.55;;
13263;SDS011;6700;51.988;7.646;2023-06-26T07:15:03;12.07;;;6.55;;
13263;SDS011;6700;51.988;7.646;2023-06-26T07:17:33;12.02;;;6.10;;
13263;SDS011;6700;51.988;7.646;2023-06-26T07:20:01;10.65;;;6.10;;
13263;SDS011;6700;51.988;7.646;2023-06-26T07:22:36;10.18;;;6.05;;
13263;SDS011;6700;51.988;7.646;2023-06-26T07:25:03;10.55;;;6.70;;
13263;SDS011;6700;51.988;7.646;2023-06-26T07:27:38;10.98;;;5.55;;
13263;SDS011;6700;51.988;7.646;2023-06-26T07:30:06;13.68;;;6.72;;
13263;SDS011;6700;51.988;7.646;2023-06-26T07:32:36;16.13;;;6.30;;
13263;SDS011;6700;51.988;7.646;2023-06-26T07:35:04;10.20;;;6.90;;
13263;SDS011;6700;51.988;7.646;2023-06-26T07:37:31;8.18;;;6.47;;
13263;SDS011;6700;51.988;7.646;2023-06-26T07:39:58;13.70;;;6.72;;
13263;SDS011;6700;51.988;7.646;2023-06-26T07:42:25;10.50;;;6.72;;
13263;SDS011;6700;51.988;7.646;2023-06-26T07:44:52;10.32;;;6.28;;
13263;SDS011;6700;51.988;7.646;2023-06-26T07:47:19;9.23;;;6.40;;
13263;SDS011;6700;51.988;7.646;2023-06-26T07:49:47;11.63;;;6.05;;
13263;SDS011;6700;51.988;7.646;2023-06-26T07:52:14;13.32;;;6.60;;
13263;SDS011;6700;51.988;7.646;2023-06-26T07:54:41;14.90;;;6.00;;
13263;SDS011;6700;51.988;7.646;2023-06-26T07:57:09;8.35;;;5.78;;
13263;SDS011;6700;51.988;7.646;2023-06-26T07:59:37;14.18;;;6.47;;
13263;SDS011;6700;51.988;7.646;2023-06-26T08:02:05;9.65;;;5.75;;
13263;SDS011;6700;51.988;7.646;2023-06-26T08:04:33;10.30;;;6.13;;
13263;SDS011;6700;51.988;7.646;2023-06-26T08:07:01;12.88;;;5.90;;
13263;SDS011;6700;51.988;7.646;2023-06-26T08:09:30;7.97;;;5.15;;
13263;SDS011;6700;51.988;7.646;2023-06-26T08:11:57;11.18;;;6.05;;
13263;SDS011;6700;51.988;7.646;2023-06-26T08:14:25;9.15;;;6.15;;
13263;SDS011;6700;51.988;7.646;2023-06-26T08:16:52;12.68;;;6.40;;
13263;SDS011;6700;51.988;7.646;2023-06-26T08:19:19;8.35;;;5.32;;
13263;SDS011;6700;51.988;7.646;2023-06-26T08:21:46;9.13;;;6.10;;
13263;SDS011;6700;51.988;7.646;2023-06-26T08:24:13;8.90;;;5.43;;
13263;SDS011;6700;51.988;7.646;2023-06-26T08:26:45;9.20;;;5.85;;
13263;SDS011;6700;51.988;7.646;2023-06-26T08:29:13;9.43;;;6.03;;
13263;SDS011;6700;51.988;7.646;2023-06-26T08:31:40;6.47;;;5.80;;
13263;SDS011;6700;51.988;7.646;2023-06-26T08:34:07;9.95;;;6.20;;
13263;SDS011;6700;51.988;7.646;2023-06-26T08:36:35;8.48;;;5.50;;
13263;SDS011;6700;51.988;7.646;2023-06-26T08:39:02;6.97;;;5.47;;
13263;SDS011;6700;51.988;7.646;2023-06-26T08:41:31;9.80;;;6.00;;
13263;SDS011;6700;51.988;7.646;2023-06-26T08:43:58;7.68;;;5.70;;
13263;SDS011;6700;51.988;7.646;2023-06-26T08:46:25;9.13;;;5.90;;
13263;SDS011;6700;51.988;7.646;2023-06-26T08:48:56;10.00;;;5.90;;
13263;SDS011;6700;51.988;7.646;2023-06-26T08:51:24;9.20;;;5.53;;
13263;SDS011;6700;51.988;7.646;2023-06-26T08:53:55;15.05;;;5.35;;
13263;SDS011;6700;51.988;7.646;2023-06-26T08:56:24;13.57;;;5.75;;
13263;SDS011;6700;51.988;7.646;2023-06-26T08:58:51;10.80;;;5.65;;
13263;SDS011;6700;51.988;7.646;2023-06-26T09:01:19;8.23;;;5.93;;
13263;SDS011;6700;51.988;7.646;2023-06-26T09:03:47;8.60;;;5.38;;
13263;SDS011;6700;51.988;7.646;2023-06-26T09:06:14;13.00;;;5.68;;
13263;SDS011;6700;51.988;7.646;2023-06-26T09:08:41;9.70;;;5.30;;
13263;SDS011;6700;51.988;7.646;2023-06-26T09:11:08;7.95;;;5.65;;
13263;SDS011;6700;51.988;7.646;2023-06-26T09:13:36;7.53;;;5.57;;
13263;SDS011;6700;51.988;7.646;2023-06-26T09:16:04;9.35;;;6.05;;
13263;SDS011;6700;51.988;7.646;2023-06-26T09:18:34;9.80;;;6.03;;
13263;SDS011;6700;51.988;7.646;2023-06-26T09:21:10;9.95;;;5.40;;
13263;SDS011;6700;51.988;7.646;2023-06-26T09:23:39;7.82;;;5.50;;
13263;SDS011;6700;51.988;7.646;2023-06-26T09:26:08;8.60;;;5.20;;
13263;SDS011;6700;51.988;7.646;2023-06-26T09:28:35;7.53;;;5.13;;
13263;SDS011;6700;51.988;7.646;2023-06-26T09:31:03;8.70;;;5.50;;
13263;SDS011;6700;51.988;7.646;2023-06-26T09:33:34;7.43;;;4.90;;
13263;SDS011;6700;51.988;7.646;2023-06-26T09:36:04;7.30;;;5.05;;
13263;SDS011;6700;51.988;7.646;2023-06-26T09:38:32;8.48;;;5.60;;
13263;SDS011;6700;51.988;7.646;2023-06-26T09:41:00;6.45;;;4.30;;
13263;SDS011;6700;51.988;7.646;2023-06-26T09:43:27;7.05;;;4.50;;
13263;SDS011;6700;51.988;7.646;2023-06-26T09:45:55;7.05;;;4.75;;
13263;SDS011;6700;51.988;7.646;2023-06-26T09:48:22;7.20;;;4.72;;
13263;SDS011;6700;51.988;7.646;2023-06-26T09:50:49;7.32;;;5.75;;
13263;SDS011;6700;51.988;7.646;2023-06-26T09:53:36;7.82;;;4.97;;
13263;SDS011;6700;51.988;7.646;2023-06-26T09:56:07;6.15;;;4.70;;
13263;SDS011;6700;51.988;7.646;2023-06-26T09:58:34;9.85;;;4.88;;
13263;SDS011;6700;51.988;7.646;2023-06-26T10:01:03;6.82;;;4.70;;
13263;SDS011;6700;51.988;7.646;2023-06-26T10:03:30;6.78;;;4.40;;
13263;SDS011;6700;51.988;7.646;2023-06-26T10:05:58;6.68;;;5.00;;
13263;SDS011;6700;51.988;7.646;2023-06-26T10:08:27;5.78;;;4.20;;
13263;SDS011;6700;51.988;7.646;2023-06-26T10:10:54;6.20;;;4.90;;
13263;SDS011;6700;51.988;7.646;2023-06-26T10:13:24;7.00;;;4.22;;
13263;SDS011;6700;51.988;7.646;2023-06-26T10:15:53;8.68;;;4.38;;
13263;SDS011;6700;51.988;7.646;2023-06-26T10:18:21;6.10;;;4.10;;
13263;SDS011;6700;51.988;7.646;2023-06-26T10:20:51;6.50;;;3.63;;
13263;SDS011;6700;51.988;7.646;2023-06-26T10:23:20;5.85;;;3.95;;
13263;SDS011;6700;51.988;7.646;2023-06-26T10:25:48;5.05;;;4.20;;
13263;SDS011;6700;51.988;7.646;2023-06-26T10:28:15;7.57;;;3.92;;
13263;SDS011;6700;51.988;7.646;2023-06-26T10:30:43;4.53;;;3.75;;
13263;SDS011;6700;51.988;7.646;2023-06-26T10:33:11;3.72;;;3.35;;
13263;SDS011;6700;51.988;7.646;2023-06-26T10:35:45;3.13;;;2.83;;
13263;SDS011;6700;51.988;7.646;2023-06-26T10:38:12;4.50;;;3.45;;
13263;SDS011;6700;51.988;7.646;2023-06-26T10:40:40;6.40;;;3.15;;
13263;SDS011;6700;51.988;7.646;2023-06-26T10:43:09;3.42;;;3.00;;
13263;SDS011;6700;51.988;7.646;2023-06-26T10:45:38;3.83;;;2.95;;
13263;SDS011;6700;51.988;7.646;2023-06-26T10:48:09;5.03;;;3.20;;
13263;SDS011;6700;51.988;7.646;2023-06-26T10:50:36;4.43;;;3.00;;
13263;SDS011;6700;51.988;7.646;2023-06-26T10:53:11;3.08;;;2.80;;
13263;SDS011;6700;51.988;7.646;2023-06-26T10:58:28;3.63;;;3.13;;
13263;SDS011;6700;51.988;7.646;2023-06-26T11:01:20;5.32;;;3.97;;
13263;SDS011;6700;51.988;7.646;2023-06-26T11:06:25;3.33;;;3.03;;
13263;SDS011;6700;51.988;7.646;2023-06-26T11:08:53;5.13;;;3.17;;
13263;SDS011;6700;51.988;7.646;2023-06-26T11:11:21;5.60;;;3.85;;
13263;SDS011;6700;51.988;7.646;2023-06-26T11:13:48;4.35;;;3.17;;
13263;SDS011;6700;51.988;7.646;2023-06-26T11:16:15;3.53;;;3.20;;
13263;SDS011;6700;51.988;7.646;2023-06-26T11:18:42;4.55;;;3.17;;
13263;SDS011;6700;51.988;7.646;2023-06-26T11:21:10;5.05;;;4.10;;
13263;SDS011;6700;51.988;7.646;2023-06-26T11:23:40;6.43;;;3.35;;
13263;SDS011;6700;51.988;7.646;2023-06-26T11:26:14;3.97;;;2.92;;
13263;SDS011;6700;51.988;7.646;2023-06-26T11:28:52;6.43;;;3.00;;
13263;SDS011;6700;51.988;7.646;2023-06-26T11:31:24;6.70;;;3.60;;
13263;SDS011;6700;51.988;7.646;2023-06-26T11:33:52;4.40;;;3.45;;
13263;SDS011;6700;51.988;7.646;2023-06-26T11:36:22;4.25;;;3.42;;
13263;SDS011;6700;51.988;7.646;2023-06-26T11:38:54;4.78;;;3.05;;
13263;SDS011;6700;51.988;7.646;2023-06-26T11:41:22;5.40;;;3.55;;
13263;SDS011;6700;51.988;7.646;2023-06-26T11:43:50;3.92;;;2.97;;
13263;SDS011;6700;51.988;7.646;2023-06-26T11:46:19;6.53;;;3.85;;
13263;SDS011;6700;51.988;7.646;2023-06-26T11:48:46;3.35;;;3.05;;
13263;SDS011;6700;51.988;7.646;2023-06-26T11:51:14;5.32;;;3.50;;
13263;SDS011;6700;51.988;7.646;2023-06-26T11:53:42;6.07;;;3.65;;
13263;SDS011;6700;51.988;7.646;2023-06-26T11:56:10;5.95;;;2.90;;
13263;SDS011;6700;51.988;7.646;2023-06-26T12:01:24;4.05;;;3.17;;
13263;SDS011;6700;51.988;7.646;2023-06-26T12:03:54;4.55;;;3.08;;
13263;SDS011;6700;51.988;7.646;2023-06-26T12:06:22;7.22;;;4.20;;
13263;SDS011;6700;51.988;7.646;2023-06-26T12:08:49;3.90;;;3.25;;
13263;SDS011;6700;51.988;7.646;2023-06-26T12:11:16;4.50;;;3.30;;
13263;SDS011;6700;51.988;7.646;2023-06-26T12:13:44;8.90;;;3.28;;
13263;SDS011;6700;51.988;7.646;2023-06-26T12:16:14;4.32;;;2.80;;
13263;SDS011;6700;51.988;7.646;2023-06-26T12:18:41;3.47;;;3.10;;
13263;SDS011;6700;51.988;7.646;2023-06-26T12:21:08;6.13;;;3.50;;
13263;SDS011;6700;51.988;7.646;2023-06-26T12:23:39;4.28;;;2.80;;
13263;SDS011;6700;51.988;7.646;2023-06-26T12:26:18;3.08;;;2.72;;
13263;SDS011;6700;51.988;7.646;2023-06-26T12:28:46;4.80;;;3.53;;
13263;SDS011;6700;51.988;7.646;2023-06-26T12:31:14;4.32;;;2.80;;
13263;SDS011;6700;51.988;7.646;2023-06-26T12:33:42;6.85;;;2.67;;
13263;SDS011;6700;51.988;7.646;2023-06-26T12:36:11;3.95;;;2.22;;
13263;SDS011;6700;51.988;7.646;2023-06-26T12:38:38;5.30;;;2.70;;
13263;SDS011;6700;51.988;7.646;2023-06-26T12:41:12;5.43;;;2.72;;
13263;SDS011;6700;51.988;7.646;2023-06-26T12:43:42;3.83;;;2.10;;
13263;SDS011;6700;51.988;7.646;2023-06-26T12:46:10;8.38;;;2.08;;
13263;SDS011;6700;51.988;7.646;2023-06-26T12:48:37;4.65;;;3.15;;
13263;SDS011;6700;51.988;7.646;2023-06-26T12:51:10;8.07;;;3.35;;
13263;SDS011;6700;51.988;7.646;2023-06-26T12:53:37;4.57;;;2.40;;
13263;SDS011;6700;51.988;7.646;2023-06-26T12:56:08;4.90;;;2.30;;
13263;SDS011;6700;51.988;7.646;2023-06-26T12:58:37;2.33;;;1.90;;
13263;SDS011;6700;51.988;7.646;2023-06-26T13:01:05;2.22;;;2.00;;
13263;SDS011;6700;51.988;7.646;2023-06-26T13:03:41;5.15;;;2.53;;
13263;SDS011;6700;51.988;7.646;2023-06-26T13:06:08;5.68;;;2.47;;
13263;SDS011;6700;51.988;7.646;2023-06-26T13:08:35;3.60;;;2.05;;
13263;SDS011;6700;51.988;7.646;2023-06-26T13:11:03;4.85;;;2.03;;
13263;SDS011;6700;51.988;7.646;2023-06-26T13:13:30;5.18;;;2.33;;
13263;SDS011;6700;51.988;7.646;2023-06-26T13:15:57;3.75;;;1.80;;
13263;SDS011;6700;51.988;7.646;2023-06-26T13:18:24;2.50;;;2.10;;
13263;SDS011;6700;51.988;7.646;2023-06-26T13:20:52;3.38;;;2.30;;
13263;SDS011;6700;51.988;7.646;2023-06-26T13:23:19;2.67;;;2.00;;
13263;SDS011;6700;51.988;7.646;2023-06-26T13:25:46;4.53;;;1.92;;
13263;SDS011;6700;51.988;7.646;2023-06-26T13:28:13;4.63;;;2.20;;
13263;SDS011;6700;51.988;7.646;2023-06-26T13:30:40;2.10;;;1.90;;
13263;SDS011;6700;51.988;7.646;2023-06-26T13:33:08;5.55;;;2.33;;
13263;SDS011;6700;51.988;7.646;2023-06-26T13:35:37;4.18;;;1.80;;
13263;SDS011;6700;51.988;7.646;2023-06-26T13:38:04;1.98;;;1.67;;
13263;SDS011;6700;51.988;7.646;2023-06-26T13:40:31;5.20;;;2.13;;
13263;SDS011;6700;51.988;7.646;2023-06-26T13:42:58;5.20;;;1.80;;
13263;SDS011;6700;51.988;7.646;2023-06-26T13:45:26;2.80;;;2.15;;
13263;SDS011;6700;51.988;7.646;2023-06-26T13:47:57;2.22;;;2.03;;
13263;SDS011;6700;51.988;7.646;2023-06-26T13:50:24;2.03;;;1.70;;
13263;SDS011;6700;51.988;7.646;2023-06-26T13:53:00;2.58;;;2.03;;
13263;SDS011;6700;51.988;7.646;2023-06-26T13:55:28;2.60;;;1.92;;
13263;SDS011;6700;51.988;7.646;2023-06-26T13:57:55;4.57;;;1.98;;
13263;SDS011;6700;51.988;7.646;2023-06-26T14:00:22;3.85;;;1.88;;
13263;SDS011;6700;51.988;7.646;2023-06-26T14:02:49;2.50;;;2.00;;
13263;SDS011;6700;51.988;7.646;2023-06-26T14:05:17;5.18;;;2.17;;
13263;SDS011;6700;51.988;7.646;2023-06-26T14:07:59;2.03;;;1.83;;
13263;SDS011;6700;51.988;7.646;2023-06-26T14:10:26;3.28;;;1.92;;
13263;SDS011;6700;51.988;7.646;2023-06-26T14:12:54;3.78;;;2.15;;
13263;SDS011;6700;51.988;7.646;2023-06-26T14:15:21;3.38;;;2.00;;
13263;SDS011;6700;51.988;7.646;2023-06-26T14:17:48;2.50;;;1.80;;
13263;SDS011;6700;51.988;7.646;2023-06-26T14:20:16;2.22;;;1.83;;
13263;SDS011;6700;51.988;7.646;2023-06-26T14:22:43;2.10;;;2.00;;
13263;SDS011;6700;51.988;7.646;2023-06-26T14:25:11;2.28;;;1.85;;
13263;SDS011;6700;51.988;7.646;2023-06-26T14:27:38;2.60;;;1.90;;
13263;SDS011;6700;51.988;7.646;2023-06-26T14:30:06;4.10;;;2.00;;
13263;SDS011;6700;51.988;7.646;2023-06-26T14:32:36;2.00;;;1.80;;
13263;SDS011;6700;51.988;7.646;2023-06-26T14:35:03;2.88;;;1.83;;
13263;SDS011;6700;51.988;7.646;2023-06-26T14:37:30;2.58;;;1.80;;
13263;SDS011;6700;51.988;7.646;2023-06-26T14:39:58;3.10;;;1.90;;
13263;SDS011;6700;51.988;7.646;2023-06-26T14:42:25;2.70;;;1.70;;
13263;SDS011;6700;51.988;7.646;2023-06-26T14:44:53;1.95;;;1.60;;
13263;SDS011;6700;51.988;7.646;2023-06-26T14:47:20;2.60;;;1.70;;
13263;SDS011;6700;51.988;7.646;2023-06-26T14:49:48;1.90;;;1.80;;
13263;SDS011;6700;51.988;7.646;2023-06-26T14:52:15;3.80;;;2.33;;
13263;SDS011;6700;51.988;7.646;2023-06-26T14:54:42;2.40;;;1.90;;
13263;SDS011;6700;51.988;7.646;2023-06-26T14:57:09;5.03;;;2.25;;
13263;SDS011;6700;51.988;7.646;2023-06-26T14:59:36;4.28;;;1.92;;
13263;SDS011;6700;51.988;7.646;2023-06-26T15:02:04;2.05;;;1.60;;
13263;SDS011;6700;51.988;7.646;2023-06-26T15:04:31;2.72;;;1.73;;
13263;SDS011;6700;51.988;7.646;2023-06-26T15:06:59;4.60;;;2.05;;
13263;SDS011;6700;51.988;7.646;2023-06-26T15:09:26;1.42;;;1.33;;
13263;SDS011;6700;51.988;7.646;2023-06-26T15:11:53;3.70;;;1.63;;
13263;SDS011;6700;51.988;7.646;2023-06-26T15:14:21;2.75;;;2.03;;
13263;SDS011;6700;51.988;7.646;2023-06-26T15:16:48;2.20;;;1.70;;
13263;SDS011;6700;51.988;7.646;2023-06-26T15:19:15;5.18;;;2.40;;
13263;SDS011;6700;51.988;7.646;2023-06-26T15:21:42;2.05;;;1.77;;